Blaenavon, United Kingdom
Current Conditions -  °F | °C
As of 2:50 AM on Monday 24 Nov 2014 (Local Time) from EGFF Reporting Station
Clear Clear  
Wind Chill: 29°   Ceiling: Unl
Heat Index: 36°   Visibility: 6mi
Dew Point: 32°   Wind: 8mph
Humidity: 87%   Direction: 350°N
Pressure: 30.24"   Gusts: NA
Location:  51.77°N, 3.09°W
Report Text: EGFF 240250Z 35007KT CAVOK 02/00 Q1024
Loading
Personal Weather Stations






























Interactive Weather Map New forecast layout! Learn more

10-Day Weather Forecast

Advertisements
Track Severe Weather on mobile